Time;durP1;ratioP1;P1;durP2;ratioP2;P2;SDS_P1;SDS_P2;PMS_P1;PMS_P2;Temp;Humidity;BMP_temperature;BMP_pressure;BME280_temperature;BME280_humidity;BME280_pressure;Samples;Min_cycle;Max_cycle;Signal;HPM_P1;HPM_P2
2023/01/11 00:02:10;;;;;;;2.60;1.77;;;0.00;99.90;;;;;;5092821;28;20562;-48
2023/01/11 00:04:36;;;;;;;4.60;1.80;;;0.00;99.90;;;;;;5092349;28;20484;-48
2023/01/11 00:07:03;;;;;;;1.30;1.20;;;0.10;99.90;;;;;;5092726;28;20984;-48
2023/01/11 00:09:30;;;;;;;1.77;0.90;;;0.00;99.90;;;;;;5093669;28;20515;-48
2023/01/11 00:11:57;;;;;;;2.50;1.30;;;0.10;99.90;;;;;;5092656;28;20480;-48
2023/01/11 00:14:25;;;;;;;1.60;1.30;;;0.20;99.90;;;;;;5087991;28;20522;-49
2023/01/11 00:16:52;;;;;;;1.70;1.03;;;0.30;99.90;;;;;;5090692;28;20595;-48
2023/01/11 00:19:19;;;;;;;1.70;1.30;;;0.40;99.90;;;;;;5090396;28;20472;-49
2023/01/11 00:21:49;;;;;;;6.43;1.60;;;0.30;99.90;;;;;;5090385;28;20526;-49
2023/01/11 00:24:16;;;;;;;2.37;1.30;;;0.40;99.90;;;;;;5089909;28;20558;-49
2023/01/11 00:26:43;;;;;;;1.53;1.40;;;0.50;99.90;;;;;;5090226;28;20471;-48
2023/01/11 00:29:09;;;;;;;3.10;1.77;;;0.40;99.90;;;;;;5091623;28;20443;-47
2023/01/11 00:31:38;;;;;;;1.60;1.30;;;0.30;99.90;;;;;;5091575;28;20467;-49
2023/01/11 00:34:04;;;;;;;2.00;1.30;;;0.30;99.90;;;;;;5088897;28;20531;-47
2023/01/11 00:36:31;;;;;;;2.10;1.10;;;0.00;99.90;;;;;;5091374;28;20881;-49
2023/01/11 00:38:58;;;;;;;2.23;1.20;;;0.00;99.90;;;;;;5091410;28;20504;-47
2023/01/11 00:49:40;;;;;;;1.00;0.80;;;0.10;99.90;;;;;;5091551;28;20896;-50
2023/01/11 00:52:08;;;;;;;2.17;0.87;;;0.30;99.90;;;;;;5091378;28;20527;-49
2023/01/11 00:54:35;;;;;;;1.17;0.60;;;0.40;99.90;;;;;;5090682;28;20933;-49
2023/01/11 00:57:02;;;;;;;1.20;0.70;;;0.60;99.90;;;;;;5091166;28;20969;-50
2023/01/11 00:59:29;;;;;;;0.90;0.73;;;0.60;99.90;;;;;;5090795;28;20530;-49
2023/01/11 01:01:57;;;;;;;1.20;0.80;;;0.60;99.90;;;;;;5091071;28;20530;-49
2023/01/11 01:04:24;;;;;;;1.60;1.03;;;0.70;99.90;;;;;;5090297;28;20526;-49
2023/01/11 01:06:51;;;;;;;1.50;1.07;;;0.80;99.90;;;;;;5091785;28;20531;-49
2023/01/11 01:09:18;;;;;;;1.80;1.37;;;1.00;99.90;;;;;;5090954;28;21035;-49
2023/01/11 01:11:45;;;;;;;1.73;1.40;;;1.00;99.90;;;;;;5091731;28;20519;-49
2023/01/11 01:14:28;;;;;;;3.30;1.50;;;0.60;99.90;;;;;;5089091;28;20471;-49
2023/01/11 01:16:59;;;;;;;1.07;0.90;;;0.50;99.90;;;;;;5089507;28;20567;-49
2023/01/11 01:19:27;;;;;;;2.17;1.23;;;0.60;99.90;;;;;;5089851;28;20473;-51
2023/01/11 01:21:55;;;;;;;1.67;1.23;;;0.50;99.90;;;;;;5089423;28;20448;-50
2023/01/11 01:24:22;;;;;;;4.00;1.57;;;0.60;99.90;;;;;;5089372;28;20507;-51
2023/01/11 01:26:49;;;;;;;1.70;1.27;;;0.60;99.90;;;;;;5089691;28;20531;-51
2023/01/11 01:29:17;;;;;;;4.40;2.20;;;0.60;99.90;;;;;;5090412;28;20472;-49
2023/01/11 01:31:44;;;;;;;2.27;1.60;;;0.60;99.90;;;;;;5091307;28;20480;-48
2023/01/11 01:34:12;;;;;;;2.90;1.70;;;0.50;99.90;;;;;;5090720;28;20485;-49
2023/01/11 01:36:39;;;;;;;2.13;1.40;;;0.60;99.90;;;;;;5091557;28;21004;-49
2023/01/11 01:39:07;;;;;;;38.53;23.90;;;0.80;99.90;;;;;;5091406;28;20538;-49
2023/01/11 01:41:35;;;;;;;7.17;4.70;;;0.70;99.90;;;;;;5091683;28;21012;-49
2023/01/11 01:44:03;;;;;;;3.50;2.40;;;0.70;99.90;;;;;;5090773;28;20551;-49
2023/01/11 01:46:32;;;;;;;1.93;1.50;;;0.40;99.90;;;;;;5090135;28;20841;-49
2023/01/11 01:49:04;;;;;;;3.27;1.80;;;0.30;99.90;;;;;;5090392;28;20563;-49
2023/01/11 01:51:34;;;;;;;3.13;1.70;;;0.20;99.90;;;;;;5089894;28;20475;-49
2023/01/11 01:54:05;;;;;;;1.90;1.67;;;0.30;99.90;;;;;;5088307;28;20602;-49
2023/01/11 01:56:35;;;;;;;2.50;1.40;;;0.30;99.90;;;;;;5089104;28;20905;-49
2023/01/11 01:59:07;;;;;;;1.63;1.53;;;0.40;99.90;;;;;;5088652;28;20909;-49
2023/01/11 02:01:49;;;;;;;2.67;2.07;;;0.20;99.90;;;;;;5090024;28;20559;-49
2023/01/11 02:04:23;;;;;;;6.70;1.60;;;0.20;99.90;;;;;;5089857;28;20517;-49
2023/01/11 02:06:56;;;;;;;1.30;1.10;;;0.00;99.90;;;;;;5090517;28;20447;-49
2023/01/11 02:09:29;;;;;;;1.67;1.10;;;0.10;99.90;;;;;;5091196;28;20526;-48
2023/01/11 02:11:58;;;;;;;2.37;2.00;;;0.00;99.90;;;;;;5091009;28;20530;-49
2023/01/11 02:14:25;;;;;;;2.27;1.47;;;0.20;99.90;;;;;;5088653;28;20972;-50
2023/01/11 02:16:52;;;;;;;1.30;1.17;;;0.20;99.90;;;;;;5090519;28;20607;-49
2023/01/11 02:19:34;;;;;;;1.70;1.33;;;0.10;99.90;;;;;;5090446;28;20475;-50
2023/01/11 02:22:24;;;;;;;1.90;1.80;;;0.10;99.90;;;;;;5090619;28;20557;-49
2023/01/11 02:25:14;;;;;;;2.90;1.63;;;0.20;99.90;;;;;;5089585;28;21080;-52
2023/01/11 02:28:05;;;;;;;1.90;1.63;;;0.20;99.90;;;;;;5090472;28;20463;-49
2023/01/11 02:30:38;;;;;;;1.40;1.20;;;0.30;99.90;;;;;;5050736;28;20442;-49
2023/01/11 02:33:16;;;;;;;5.10;1.50;;;0.30;99.90;;;;;;5049545;28;20473;-50
2023/01/11 02:35:57;;;;;;;1.60;1.20;;;0.30;99.90;;;;;;5049781;28;21018;-49
2023/01/11 02:38:29;;;;;;;1.87;1.40;;;0.30;99.90;;;;;;5119820;22;20989;-51
2023/01/11 02:41:03;;;;;;;1.30;1.20;;;0.20;99.90;;;;;;5073738;28;20441;-51
2023/01/11 02:46:31;;;;;;;1.73;1.40;;;0.40;99.90;;;;;;5073069;28;20432;-53
2023/01/11 02:49:04;;;;;;;1.53;1.30;;;0.40;99.90;;;;;;5072994;28;20547;-51
2023/01/11 02:51:39;;;;;;;1.70;1.07;;;0.50;99.90;;;;;;5073168;28;20444;-53
2023/01/11 02:54:09;;;;;;;1.60;1.20;;;0.60;99.90;;;;;;5072095;28;20527;-52
2023/01/11 02:56:40;;;;;;;1.20;1.10;;;0.60;99.90;;;;;;5072970;28;20473;-52
2023/01/11 02:59:12;;;;;;;2.20;1.60;;;0.60;99.90;;;;;;5072326;28;20581;-51
2023/01/11 03:01:50;;;;;;;1.90;1.40;;;0.60;99.90;;;;;;5072617;28;20487;-52
2023/01/11 03:04:28;;;;;;;1.90;1.63;;;0.60;99.90;;;;;;5072175;28;20487;-52
2023/01/11 03:07:08;;;;;;;1.60;1.50;;;0.60;99.90;;;;;;5073605;28;20933;-51
2023/01/11 03:09:41;;;;;;;4.53;2.60;;;0.60;99.90;;;;;;5073589;28;20889;-51
2023/01/11 03:15:40;;;;;;;2.53;1.53;;;0.50;99.90;;;;;;5071837;28;20538;-51
2023/01/11 03:18:19;;;;;;;2.10;1.90;;;0.50;99.90;;;;;;5072846;28;20489;-51
2023/01/11 03:20:50;;;;;;;2.20;1.50;;;0.60;99.90;;;;;;5073508;28;20533;-52
2023/01/11 03:23:24;;;;;;;3.67;2.03;;;0.50;99.90;;;;;;5072384;28;20899;-52
2023/01/11 03:25:59;;;;;;;2.73;2.37;;;0.50;99.90;;;;;;5072753;28;20876;-51
2023/01/11 03:28:32;;;;;;;3.70;2.67;;;0.40;99.90;;;;;;5071954;28;20489;-53
2023/01/11 03:31:07;;;;;;;3.53;2.40;;;0.40;99.90;;;;;;5072792;28;20449;-51
2023/01/11 03:33:39;;;;;;;3.13;2.10;;;0.30;99.90;;;;;;5070999;28;20528;-53
2023/01/11 03:36:15;;;;;;;5.33;2.47;;;0.30;99.90;;;;;;5072555;28;20540;-51
2023/01/11 03:38:49;;;;;;;3.00;1.87;;;0.30;99.90;;;;;;5096713;28;20496;-52
2023/01/11 03:41:21;;;;;;;2.90;1.97;;;0.30;99.90;;;;;;5113135;28;20442;-53
2023/01/11 03:43:51;;;;;;;2.27;1.70;;;0.20;99.90;;;;;;5112700;28;20524;-50
2023/01/11 03:46:24;;;;;;;2.20;1.80;;;0.20;99.90;;;;;;5113323;28;20486;-51
2023/01/11 03:48:55;;;;;;;2.43;1.80;;;0.30;99.90;;;;;;5112619;28;20499;-52
2023/01/11 03:51:27;;;;;;;2.03;1.63;;;0.40;99.90;;;;;;5113170;28;20522;-51
2023/01/11 03:53:58;;;;;;;1.70;1.60;;;0.40;99.90;;;;;;5110628;28;20529;-52
2023/01/11 03:56:29;;;;;;;1.73;1.60;;;0.40;99.90;;;;;;5111037;28;20515;-51
2023/01/11 03:58:56;;;;;;;1.70;1.60;;;0.20;99.90;;;;;;5109805;28;20586;-52
2023/01/11 04:01:26;;;;;;;2.20;1.50;;;0.30;99.90;;;;;;5110894;28;20546;-54
2023/01/11 04:03:53;;;;;;;2.30;1.50;;;0.50;99.90;;;;;;5110721;28;20893;-52
2023/01/11 04:06:21;;;;;;;1.20;1.07;;;0.60;99.90;;;;;;5111533;28;20475;-52
2023/01/11 04:08:48;;;;;;;1.93;1.73;;;0.60;99.90;;;;;;5112697;28;20554;-52
2023/01/11 04:11:14;;;;;;;2.30;1.77;;;0.60;99.90;;;;;;5113106;28;20463;-52
2023/01/11 04:13:41;;;;;;;4.60;2.27;;;0.60;99.90;;;;;;5112142;28;20466;-52
2023/01/11 04:16:08;;;;;;;2.80;1.90;;;0.40;99.90;;;;;;5111548;28;20935;-53
2023/01/11 04:18:36;;;;;;;3.20;1.70;;;0.50;99.90;;;;;;5112725;28;20546;-52
2023/01/11 04:21:04;;;;;;;2.80;1.73;;;0.60;99.90;;;;;;5112240;28;20850;-52
2023/01/11 04:23:31;;;;;;;2.63;1.53;;;0.60;99.90;;;;;;5111402;28;20471;-53
2023/01/11 04:25:57;;;;;;;1.80;1.60;;;0.70;99.90;;;;;;5112123;28;20955;-52
2023/01/11 04:28:24;;;;;;;2.00;1.47;;;0.60;99.90;;;;;;5112466;28;20490;-51
2023/01/11 04:30:51;;;;;;;3.23;1.27;;;0.60;99.90;;;;;;5112075;28;20542;-54
2023/01/11 04:33:18;;;;;;;1.90;1.20;;;0.80;99.90;;;;;;5109776;28;20821;-51
2023/01/11 04:35:48;;;;;;;3.87;2.17;;;0.70;99.90;;;;;;5110855;28;20522;-52
2023/01/11 04:38:15;;;;;;;4.60;2.43;;;0.80;99.90;;;;;;5110213;28;20474;-51
2023/01/11 04:40:42;;;;;;;3.90;2.37;;;0.90;99.90;;;;;;5111081;28;20479;-52
2023/01/11 04:43:08;;;;;;;4.23;3.60;;;0.90;99.90;;;;;;5110095;28;20854;-51
2023/01/11 04:45:35;;;;;;;4.13;2.37;;;1.00;99.90;;;;;;5110606;28;20566;-52
2023/01/11 04:48:02;;;;;;;2.67;2.43;;;0.90;99.90;;;;;;5110590;28;20872;-51
2023/01/11 04:50:29;;;;;;;2.50;1.93;;;0.90;99.90;;;;;;5109898;28;20523;-53
2023/01/11 04:52:58;;;;;;;2.53;2.00;;;0.90;99.90;;;;;;5110245;28;20514;-54
2023/01/11 04:55:24;;;;;;;4.53;2.20;;;0.90;99.90;;;;;;5110766;28;20458;-54
2023/01/11 04:57:51;;;;;;;1.50;1.40;;;0.90;99.90;;;;;;5111597;28;20495;-53
2023/01/11 05:00:19;;;;;;;1.60;1.30;;;0.80;99.90;;;;;;5111225;28;20523;-52
2023/01/11 05:02:46;;;;;;;1.77;1.67;;;0.80;99.90;;;;;;5111884;28;20435;-53
2023/01/11 05:05:13;;;;;;;1.90;1.80;;;0.90;99.90;;;;;;5110937;28;20508;-52
2023/01/11 05:07:40;;;;;;;2.17;1.97;;;0.90;99.90;;;;;;5111017;28;20455;-53
2023/01/11 05:10:09;;;;;;;1.37;1.17;;;1.00;99.90;;;;;;5111820;28;20527;-52
2023/01/11 05:12:36;;;;;;;3.90;2.00;;;0.90;99.90;;;;;;5111501;28;20478;-52
2023/01/11 05:15:03;;;;;;;3.83;2.20;;;0.90;99.90;;;;;;5109439;28;20535;-51
2023/01/11 05:17:30;;;;;;;4.50;3.43;;;0.90;99.90;;;;;;5111512;28;20459;-52
2023/01/11 05:19:57;;;;;;;4.17;2.57;;;1.10;99.90;;;;;;5111646;28;20528;-53
2023/01/11 05:22:24;;;;;;;2.53;1.50;;;0.80;99.90;;;;;;5110044;28;20493;-52
2023/01/11 05:24:51;;;;;;;1.30;0.80;;;0.70;99.90;;;;;;5110328;28;20558;-52
2023/01/11 05:27:19;;;;;;;2.57;2.37;;;0.60;99.90;;;;;;5109447;28;20522;-53
2023/01/11 05:29:46;;;;;;;6.20;4.10;;;0.60;99.90;;;;;;5110002;28;20494;-51
2023/01/11 05:32:13;;;;;;;3.77;3.23;;;0.60;99.90;;;;;;5109177;28;20551;-52
2023/01/11 05:34:40;;;;;;;3.67;2.80;;;0.20;99.90;;;;;;5109301;28;20975;-51
2023/01/11 05:37:07;;;;;;;4.33;3.37;;;0.30;99.90;;;;;;5109712;28;20543;-51
2023/01/11 05:39:33;;;;;;;6.67;4.33;;;0.50;99.90;;;;;;5109814;28;20538;-54
2023/01/11 05:42:00;;;;;;;5.23;3.73;;;0.60;99.90;;;;;;5110846;28;20475;-53
2023/01/11 05:47:13;;;;;;;8.20;2.37;;;0.20;99.90;;;;;;5118234;28;20528;-51
2023/01/11 05:49:40;;;;;;;2.83;2.60;;;0.30;99.90;;;;;;5110017;28;20514;-52
2023/01/11 05:52:07;;;;;;;2.70;2.50;;;0.50;99.90;;;;;;5109899;28;20526;-51
2023/01/11 05:54:33;;;;;;;3.33;2.50;;;0.60;99.90;;;;;;5108973;28;20471;-52
2023/01/11 05:57:00;;;;;;;5.67;4.10;;;0.80;99.90;;;;;;5109930;28;20987;-53
2023/01/11 05:59:29;;;;;;;4.53;3.60;;;0.60;99.90;;;;;;5109247;28;20877;-51
2023/01/11 06:01:56;;;;;;;3.33;3.03;;;0.50;99.90;;;;;;5109230;28;20523;-54
2023/01/11 06:04:23;;;;;;;3.83;3.53;;;0.50;99.90;;;;;;5108939;28;20925;-53
2023/01/11 06:06:50;;;;;;;4.87;3.47;;;0.60;99.90;;;;;;5109298;28;20474;-52
2023/01/11 06:09:17;;;;;;;8.93;2.40;;;0.50;99.90;;;;;;5107825;28;20494;-54
2023/01/11 06:11:44;;;;;;;5.43;3.07;;;0.50;99.90;;;;;;5104961;28;20493;-52
2023/01/11 06:14:10;;;;;;;4.60;2.83;;;0.40;99.90;;;;;;5109410;28;20439;-52
2023/01/11 06:16:39;;;;;;;2.70;2.00;;;0.20;99.90;;;;;;5110188;28;20567;-52
2023/01/11 06:19:06;;;;;;;3.47;3.00;;;0.20;99.90;;;;;;5110644;28;20451;-52
2023/01/11 06:21:34;;;;;;;6.20;4.30;;;0.10;99.90;;;;;;5112680;28;20518;-51
2023/01/11 06:24:01;;;;;;;5.83;5.30;;;0.20;99.90;;;;;;5113408;28;20447;-53
2023/01/11 06:26:28;;;;;;;6.60;5.60;;;-0.10;99.90;;;;;;5112737;28;20893;-52
2023/01/11 06:28:54;;;;;;;5.33;4.60;;;-0.10;99.90;;;;;;5111416;28;20629;-53
2023/01/11 06:31:21;;;;;;;6.00;4.17;;;-0.10;99.90;;;;;;5108192;28;20534;-51
2023/01/11 06:33:50;;;;;;;4.13;3.50;;;-0.20;99.90;;;;;;5112032;28;20534;-52
2023/01/11 06:36:17;;;;;;;4.20;3.23;;;-0.30;99.90;;;;;;5112814;28;20603;-52
2023/01/11 06:38:44;;;;;;;4.50;3.37;;;-0.10;99.90;;;;;;5112430;28;20496;-53
2023/01/11 06:41:12;;;;;;;3.80;2.87;;;-0.20;99.90;;;;;;5113321;28;20629;-53
2023/01/11 06:43:40;;;;;;;11.07;5.63;;;-0.10;99.90;;;;;;5112559;28;20817;-51
2023/01/11 06:46:10;;;;;;;5.17;3.97;;;-0.10;99.90;;;;;;5112693;28;20485;-51
2023/01/11 06:48:37;;;;;;;2.33;2.00;;;-0.10;99.90;;;;;;5112866;28;20819;-51
2023/01/11 06:51:06;;;;;;;2.37;2.17;;;0.00;99.90;;;;;;5113839;28;21023;-51
2023/01/11 06:53:33;;;;;;;2.10;1.90;;;0.10;99.90;;;;;;5100293;28;20592;-53
2023/01/11 06:55:59;;;;;;;2.77;2.57;;;0.30;99.90;;;;;;5110950;28;20471;-52
2023/01/11 06:58:26;;;;;;;4.77;4.10;;;0.40;99.90;;;;;;5108925;28;20554;-55
2023/01/11 07:00:55;;;;;;;4.43;3.80;;;0.50;99.90;;;;;;5108878;28;20473;-51
2023/01/11 07:03:23;;;;;;;6.53;5.10;;;0.30;99.90;;;;;;5106818;28;20979;-51
2023/01/11 07:05:51;;;;;;;5.90;4.77;;;0.20;99.90;;;;;;5106789;28;20471;-53
2023/01/11 07:08:20;;;;;;;8.00;4.80;;;0.20;99.90;;;;;;5109409;28;21015;-52
2023/01/11 07:10:47;;;;;;;7.13;5.77;;;0.20;99.90;;;;;;5110946;28;20490;-51
2023/01/11 07:13:15;;;;;;;5.13;4.27;;;0.20;99.90;;;;;;5111595;28;20594;-52
2023/01/11 07:15:43;;;;;;;5.03;3.80;;;0.20;99.90;;;;;;5111628;28;20488;-52
2023/01/11 07:18:10;;;;;;;4.13;3.80;;;0.20;99.90;;;;;;5112417;28;20459;-53
2023/01/11 07:20:37;;;;;;;6.50;4.17;;;0.20;99.90;;;;;;5111990;28;20526;-51
2023/01/11 07:23:06;;;;;;;4.93;4.47;;;0.20;99.90;;;;;;5111699;28;20447;-51
2023/01/11 07:25:35;;;;;;;6.90;5.03;;;0.40;99.90;;;;;;5112176;28;20482;-51
2023/01/11 07:28:04;;;;;;;7.07;5.43;;;0.50;99.90;;;;;;5112880;28;20575;-53
2023/01/11 07:30:33;;;;;;;7.63;4.40;;;0.60;99.90;;;;;;5112476;28;20467;-51
2023/01/11 07:33:00;;;;;;;12.13;6.33;;;0.60;99.90;;;;;;5110758;28;20471;-52
2023/01/11 07:35:27;;;;;;;12.93;8.97;;;0.60;99.90;;;;;;5112347;28;20989;-52
2023/01/11 07:37:54;;;;;;;9.53;7.70;;;0.50;99.90;;;;;;5112431;28;20499;-52
2023/01/11 07:40:21;;;;;;;11.33;7.00;;;0.50;99.90;;;;;;5112281;28;20477;-52
2023/01/11 07:45:36;;;;;;;10.93;7.73;;;0.60;99.90;;;;;;5111626;28;20492;-51
2023/01/11 07:48:05;;;;;;;9.07;8.17;;;0.70;99.90;;;;;;5111759;28;20486;-55
2023/01/11 07:50:33;;;;;;;12.47;8.17;;;0.70;99.90;;;;;;5110757;28;20966;-53
2023/01/11 07:52:59;;;;;;;10.83;8.40;;;0.70;99.90;;;;;;5110966;28;20956;-51
2023/01/11 07:55:26;;;;;;;9.73;7.50;;;0.80;99.90;;;;;;5111428;28;20439;-53
2023/01/11 07:57:57;;;;;;;7.50;6.30;;;0.80;99.90;;;;;;5110295;28;20487;-52
2023/01/11 08:00:24;;;;;;;10.03;5.77;;;0.90;99.90;;;;;;5110928;28;20475;-52
2023/01/11 08:02:52;;;;;;;7.50;5.50;;;0.90;99.90;;;;;;5111134;28;20914;-50
2023/01/11 08:05:19;;;;;;;6.67;5.10;;;0.70;99.90;;;;;;5110273;28;20470;-53
2023/01/11 08:07:46;;;;;;;6.83;4.70;;;0.80;99.90;;;;;;5110698;28;20793;-52
2023/01/11 08:10:13;;;;;;;8.40;5.50;;;0.70;99.90;;;;;;5106513;28;20674;-53
2023/01/11 08:15:31;;;;;;;5.60;4.20;;;0.90;99.90;;;;;;5109970;28;20900;-52
2023/01/11 08:17:58;;;;;;;6.27;4.73;;;0.60;99.90;;;;;;5109469;28;21063;-52
2023/01/11 08:20:26;;;;;;;5.37;4.43;;;0.50;99.90;;;;;;5110164;28;20935;-51
2023/01/11 08:22:53;;;;;;;5.03;4.43;;;0.60;99.90;;;;;;5109313;28;20471;-53
2023/01/11 08:25:21;;;;;;;11.60;5.63;;;0.60;99.90;;;;;;5109029;28;20502;-51
2023/01/11 08:27:47;;;;;;;5.87;4.20;;;0.50;99.90;;;;;;5109039;28;20810;-51
2023/01/11 08:30:15;;;;;;;4.77;3.90;;;0.80;99.90;;;;;;5107943;27;20472;-53
2023/01/11 08:32:44;;;;;;;6.00;5.53;;;0.80;99.90;;;;;;5088940;28;20851;-51
2023/01/11 08:35:12;;;;;;;5.77;4.50;;;0.90;99.90;;;;;;5106022;28;20483;-52
2023/01/11 08:37:48;;;;;;;6.00;5.17;;;0.90;99.90;;;;;;5111224;27;20542;-52
2023/01/11 08:40:15;;;;;;;6.53;5.33;;;1.10;99.90;;;;;;5113740;27;20537;-53
2023/01/11 08:42:42;;;;;;;9.83;5.73;;;1.20;99.90;;;;;;5110399;28;20527;-52
2023/01/11 08:45:09;;;;;;;6.57;5.67;;;1.30;99.90;;;;;;5112240;27;20579;-52
2023/01/11 08:47:36;;;;;;;5.30;4.80;;;1.20;99.90;;;;;;5109225;28;20499;-52
2023/01/11 08:50:07;;;;;;;6.53;4.90;;;1.10;99.90;;;;;;5112553;27;20535;-51
2023/01/11 08:52:34;;;;;;;6.50;5.37;;;1.10;99.90;;;;;;5109248;28;20451;-52
2023/01/11 08:55:01;;;;;;;7.57;6.13;;;1.10;99.90;;;;;;5108919;28;20943;-51
2023/01/11 08:57:28;;;;;;;8.30;6.63;;;1.30;99.90;;;;;;5105509;28;20526;-53
2023/01/11 08:59:54;;;;;;;9.17;6.90;;;1.10;99.90;;;;;;5109042;28;20881;-51
2023/01/11 09:02:21;;;;;;;9.10;6.87;;;1.00;99.90;;;;;;5101968;27;20523;-51
2023/01/11 09:04:48;;;;;;;9.23;6.03;;;1.10;99.90;;;;;;5108059;28;20443;-52
2023/01/11 09:07:16;;;;;;;6.60;5.93;;;1.20;99.90;;;;;;5110390;28;20526;-52
2023/01/11 09:09:43;;;;;;;7.23;5.50;;;1.20;99.90;;;;;;5110845;28;20995;-51
2023/01/11 09:12:10;;;;;;;6.17;5.40;;;1.40;99.90;;;;;;5110901;28;20494;-51
2023/01/11 09:14:37;;;;;;;6.03;5.23;;;1.50;99.90;;;;;;5108927;28;20514;-51
2023/01/11 09:17:04;;;;;;;6.63;5.93;;;1.50;99.90;;;;;;5110666;28;20526;-51
2023/01/11 09:19:32;;;;;;;7.30;4.43;;;1.60;99.90;;;;;;5113172;27;20641;-52
2023/01/11 09:22:00;;;;;;;4.77;4.23;;;1.50;99.90;;;;;;5101366;27;20443;-51
2023/01/11 09:24:29;;;;;;;5.33;3.70;;;1.50;99.90;;;;;;5107721;28;20456;-52
2023/01/11 09:26:58;;;;;;;7.17;4.30;;;1.40;99.90;;;;;;5108263;28;21143;-52
2023/01/11 09:29:25;;;;;;;5.87;5.37;;;1.50;99.90;;;;;;5113342;27;20461;-52
2023/01/11 09:31:52;;;;;;;5.57;4.93;;;1.60;99.90;;;;;;5129379;27;20482;-52
2023/01/11 09:34:19;;;;;;;6.97;5.30;;;1.60;99.90;;;;;;5109625;27;20986;-52
2023/01/11 09:36:47;;;;;;;5.83;5.30;;;1.80;99.90;;;;;;5108343;28;20447;-54
2023/01/11 09:39:17;;;;;;;6.63;6.00;;;1.80;99.90;;;;;;5108654;28;20471;-51
2023/01/11 09:42:10;;;;;;;6.07;5.57;;;1.70;99.90;;;;;;5107900;28;21075;-51
2023/01/11 09:44:44;;;;;;;6.10;5.50;;;1.40;99.90;;;;;;5108546;28;20935;-53
2023/01/11 09:47:16;;;;;;;6.53;5.83;;;1.40;99.90;;;;;;5110748;28;20474;-53
2023/01/11 09:49:48;;;;;;;7.40;5.47;;;1.40;99.90;;;;;;5112368;28;20478;-51
2023/01/11 09:52:27;;;;;;;8.03;7.00;;;1.60;99.90;;;;;;5113232;28;20442;-50
2023/01/11 09:54:55;;;;;;;7.20;5.33;;;1.80;99.90;;;;;;5112243;28;20528;-51
2023/01/11 09:57:33;;;;;;;6.07;5.50;;;1.80;99.90;;;;;;5112252;28;20439;-51
2023/01/11 10:00:10;;;;;;;6.00;5.40;;;1.80;99.90;;;;;;5113144;28;20936;-51
2023/01/11 10:02:47;;;;;;;4.97;3.70;;;2.00;99.90;;;;;;5113929;28;20493;-51
2023/01/11 10:05:45;;;;;;;7.10;5.80;;;2.10;99.90;;;;;;5112644;28;20478;-51
2023/01/11 10:08:29;;;;;;;7.27;6.57;;;2.30;99.90;;;;;;5114234;28;20463;-50
2023/01/11 10:11:05;;;;;;;6.83;6.13;;;2.30;99.90;;;;;;5112776;27;21475;-51
2023/01/11 10:13:45;;;;;;;11.63;6.00;;;2.30;99.90;;;;;;5112252;27;20521;-51
2023/01/11 10:16:27;;;;;;;9.60;6.70;;;2.30;99.90;;;;;;5109285;28;20485;-51
2023/01/11 10:19:05;;;;;;;12.13;6.83;;;2.30;99.90;;;;;;5114347;27;20502;-52
2023/01/11 10:21:39;;;;;;;6.53;5.80;;;2.30;99.90;;;;;;5114378;28;20443;-51
2023/01/11 10:24:15;;;;;;;4.67;4.27;;;2.40;99.90;;;;;;5111482;28;20444;-52
2023/01/11 10:26:42;;;;;;;5.57;4.87;;;2.30;99.90;;;;;;5110538;28;20566;-51
2023/01/11 10:29:38;;;;;;;7.67;5.90;;;2.20;99.90;;;;;;5113601;28;20486;-51
2023/01/11 10:32:32;;;;;;;5.37;4.87;;;2.30;99.90;;;;;;5112744;28;20446;-52
2023/01/11 10:35:40;;;;;;;5.87;4.77;;;2.40;99.90;;;;;;5105426;28;20865;-51
2023/01/11 10:38:39;;;;;;;4.77;2.90;;;2.40;99.90;;;;;;5111178;28;20475;-51
2023/01/11 10:41:18;;;;;;;3.97;2.63;;;2.20;99.90;;;;;;5109645;28;20535;-51
2023/01/11 10:43:52;;;;;;;4.73;3.87;;;2.30;99.90;;;;;;5111945;28;20537;-51
2023/01/11 10:46:24;;;;;;;4.30;3.13;;;2.50;99.90;;;;;;5111551;27;20558;-50
2023/01/11 10:49:00;;;;;;;4.93;3.27;;;2.70;99.90;;;;;;5111504;28;20956;-54
2023/01/11 10:51:35;;;;;;;7.30;3.70;;;2.80;99.90;;;;;;5112282;28;20439;-50
2023/01/11 10:54:11;;;;;;;4.90;3.07;;;2.80;99.90;;;;;;5109145;28;20440;-50
2023/01/11 10:56:53;;;;;;;5.30;2.87;;;2.90;99.90;;;;;;5112862;28;20466;-51
2023/01/11 10:59:45;;;;;;;3.13;2.80;;;2.80;99.90;;;;;;5110057;28;20550;-49
2023/01/11 11:02:26;;;;;;;4.30;3.00;;;3.00;99.90;;;;;;5111138;28;20944;-53
2023/01/11 11:05:15;;;;;;;3.63;2.13;;;3.10;99.90;;;;;;5112087;28;20494;-50
2023/01/11 11:07:49;;;;;;;3.33;2.90;;;2.70;99.90;;;;;;5112602;28;20529;-52
2023/01/11 11:10:21;;;;;;;2.67;2.30;;;2.70;99.90;;;;;;5113418;28;20530;-50
2023/01/11 11:12:55;;;;;;;2.63;2.43;;;2.60;99.90;;;;;;5111898;28;20535;-52
2023/01/11 11:15:29;;;;;;;3.60;2.20;;;2.70;99.90;;;;;;5112672;28;20448;-50
2023/01/11 11:17:57;;;;;;;3.13;2.43;;;2.70;99.90;;;;;;5113852;28;20534;-51
2023/01/11 11:20:28;;;;;;;3.03;2.73;;;2.70;99.90;;;;;;5111143;28;20955;-50
2023/01/11 11:22:56;;;;;;;5.37;3.77;;;2.70;99.90;;;;;;5112415;28;20565;-56
2023/01/11 11:25:29;;;;;;;5.00;3.87;;;2.70;99.90;;;;;;5113205;28;20443;-50
2023/01/11 11:28:01;;;;;;;12.97;4.77;;;2.80;99.90;;;;;;5113223;28;20490;-51
2023/01/11 11:30:31;;;;;;;19.07;10.60;;;3.00;99.90;;;;;;5112753;28;20479;-54
2023/01/11 11:33:02;;;;;;;5.10;3.17;;;3.10;99.90;;;;;;5112546;28;20633;-52
2023/01/11 11:35:35;;;;;;;7.07;4.07;;;3.00;99.90;;;;;;5108978;28;20526;-52
2023/01/11 11:38:02;;;;;;;6.67;4.47;;;2.90;99.90;;;;;;5111574;28;20512;-52
2023/01/11 11:40:33;;;;;;;9.27;6.10;;;2.90;99.90;;;;;;5107445;28;20530;-51
2023/01/11 11:43:14;;;;;;;7.10;4.73;;;2.90;99.90;;;;;;5108073;28;20526;-50
2023/01/11 11:45:51;;;;;;;4.77;4.20;;;3.10;99.90;;;;;;5112224;28;20460;-50
2023/01/11 11:48:19;;;;;;;6.27;4.50;;;3.10;99.90;;;;;;5111752;28;20487;-51
2023/01/11 11:50:48;;;;;;;9.90;5.57;;;3.10;99.90;;;;;;5111091;28;20475;-51
2023/01/11 11:53:25;;;;;;;8.50;5.20;;;3.10;99.90;;;;;;5112145;28;20530;-51
2023/01/11 11:55:53;;;;;;;6.83;5.13;;;3.10;99.90;;;;;;5111512;28;20784;-50
2023/01/11 11:58:24;;;;;;;6.90;5.00;;;3.10;99.90;;;;;;5111654;28;20555;-51
2023/01/11 12:00:52;;;;;;;5.57;3.73;;;3.20;99.90;;;;;;5109762;28;20555;-51
2023/01/11 12:03:23;;;;;;;5.20;3.40;;;3.40;99.90;;;;;;5111976;28;20509;-51
2023/01/11 12:05:53;;;;;;;5.43;3.40;;;3.40;99.90;;;;;;5112135;28;20483;-51
2023/01/11 12:08:21;;;;;;;5.33;4.00;;;3.40;99.90;;;;;;5112389;28;20530;-52
2023/01/11 12:10:51;;;;;;;3.67;3.33;;;3.10;99.90;;;;;;5110520;28;20443;-54
2023/01/11 12:13:33;;;;;;;3.10;2.80;;;3.10;99.90;;;;;;5111097;28;20896;-51
2023/01/11 12:16:03;;;;;;;5.77;4.40;;;3.20;99.90;;;;;;5111721;28;20524;-53
2023/01/11 12:18:40;;;;;;;5.10;3.73;;;3.30;99.90;;;;;;5102236;28;20981;-51
2023/01/11 12:21:18;;;;;;;8.20;4.23;;;3.40;99.90;;;;;;5100497;28;20450;-53
2023/01/11 12:23:45;;;;;;;4.00;3.60;;;3.60;99.90;;;;;;5102919;28;20531;-50
2023/01/11 12:26:22;;;;;;;4.70;3.20;;;3.60;99.90;;;;;;5110550;28;20900;-53
2023/01/11 12:29:06;;;;;;;5.63;3.93;;;3.60;99.90;;;;;;5100140;28;20495;-51
2023/01/11 12:31:45;;;;;;;5.40;3.27;;;3.60;99.90;;;;;;5109913;28;20531;-54
2023/01/11 12:34:29;;;;;;;3.73;2.77;;;3.70;99.90;;;;;;5108719;28;21051;-52
2023/01/11 12:37:06;;;;;;;19.47;12.70;;;3.70;99.90;;;;;;5109286;28;20448;-52
2023/01/11 12:39:43;;;;;;;5.43;4.00;;;3.80;99.90;;;;;;5109405;28;20468;-51
2023/01/11 12:42:28;;;;;;;3.10;2.40;;;3.80;99.90;;;;;;5109514;28;20971;-53
2023/01/11 12:45:07;;;;;;;4.50;2.73;;;3.80;99.90;;;;;;5110818;28;20526;-51
2023/01/11 12:48:00;;;;;;;2.87;2.67;;;3.80;99.90;;;;;;5111249;28;20509;-51
2023/01/11 12:50:33;;;;;;;4.60;3.07;;;3.80;99.90;;;;;;5109700;28;20899;-51
2023/01/11 12:53:17;;;;;;;5.30;2.70;;;3.80;99.90;;;;;;5110690;28;20516;-50
2023/01/11 12:55:55;;;;;;;4.87;2.60;;;3.80;99.90;;;;;;5111897;28;20470;-51
2023/01/11 12:58:28;;;;;;;3.40;2.40;;;3.90;99.90;;;;;;5096506;28;20879;-52
2023/01/11 13:01:11;;;;;;;3.07;2.47;;;3.80;99.90;;;;;;5111195;28;20978;-52
2023/01/11 13:03:56;;;;;;;2.63;2.43;;;3.80;99.90;;;;;;5108578;28;20431;-52
2023/01/11 13:06:31;;;;;;;2.40;2.20;;;3.80;99.90;;;;;;5111258;28;20897;-51
2023/01/11 13:09:03;;;;;;;3.90;2.40;;;3.90;99.90;;;;;;5110522;28;20460;-52
2023/01/11 13:11:44;;;;;;;2.87;2.20;;;3.80;99.90;;;;;;5111515;28;20936;-51
2023/01/11 13:14:28;;;;;;;2.73;2.50;;;3.80;99.90;;;;;;5109772;28;20445;-51
2023/01/11 13:17:03;;;;;;;2.90;2.37;;;3.80;99.90;;;;;;5109359;28;20536;-51
2023/01/11 13:19:37;;;;;;;2.80;2.50;;;3.90;99.90;;;;;;5108115;28;20471;-52
2023/01/11 13:22:10;;;;;;;4.47;3.00;;;3.90;99.90;;;;;;5108921;28;20456;-52
2023/01/11 13:24:38;;;;;;;3.77;3.00;;;3.90;99.90;;;;;;5112882;27;20531;-51
2023/01/11 13:27:08;;;;;;;3.10;2.73;;;3.70;99.90;;;;;;5110056;28;20502;-53
2023/01/11 13:29:39;;;;;;;3.20;2.90;;;3.60;99.90;;;;;;5109826;28;20495;-53
2023/01/11 13:32:12;;;;;;;2.80;2.23;;;3.70;99.90;;;;;;5093672;28;20528;-52
2023/01/11 13:34:42;;;;;;;3.87;2.80;;;3.80;99.90;;;;;;5099994;28;20611;-52
2023/01/11 13:37:15;;;;;;;3.43;2.93;;;3.90;99.90;;;;;;5109816;28;20533;-53
2023/01/11 13:39:48;;;;;;;4.70;3.07;;;3.90;99.90;;;;;;5108761;28;21009;-52